createdAt,value
2023-02-19T00:00:50.491Z,10.76
2023-02-19T00:02:53.990Z,10.74
2023-02-19T00:04:57.127Z,10.77
2023-02-19T00:07:00.226Z,10.77
2023-02-19T00:09:04.962Z,10.78
2023-02-19T00:11:09.660Z,10.79
2023-02-19T00:13:13.086Z,10.81
2023-02-19T00:15:16.271Z,10.80
2023-02-19T00:17:20.521Z,10.78
2023-02-19T00:19:23.705Z,10.78
2023-02-19T00:21:27.532Z,10.80
2023-02-19T00:23:30.824Z,10.80
2023-02-19T00:25:37.736Z,10.81
2023-02-19T00:27:40.833Z,10.84
2023-02-19T00:29:43.893Z,10.85
2023-02-19T00:31:47.233Z,10.85
2023-02-19T00:33:51.855Z,10.90
2023-02-19T00:35:55.003Z,10.86
2023-02-19T00:37:58.194Z,10.89
2023-02-19T00:40:01.409Z,10.87
2023-02-19T00:42:05.934Z,10.89
2023-02-19T00:44:09.741Z,10.90
2023-02-19T00:46:12.940Z,10.90
2023-02-19T00:48:16.055Z,10.90
2023-02-19T00:50:19.123Z,10.91
2023-02-19T00:52:22.293Z,10.88
2023-02-19T00:54:25.574Z,10.89
2023-02-19T00:56:29.012Z,10.91
2023-02-19T00:58:33.727Z,10.90
2023-02-19T01:00:37.138Z,10.90
2023-02-19T01:02:40.252Z,10.90
2023-02-19T01:04:43.399Z,10.90
2023-02-19T01:06:48.725Z,10.93
2023-02-19T01:08:51.861Z,10.93
2023-02-19T01:10:55.174Z,10.96
2023-02-19T01:12:58.611Z,10.94
2023-02-19T01:15:03.042Z,10.95
2023-02-19T01:17:06.553Z,10.96
2023-02-19T01:19:09.703Z,10.96
2023-02-19T01:21:14.519Z,11.00
2023-02-19T01:23:17.594Z,10.95
2023-02-19T01:25:21.052Z,10.96
2023-02-19T01:27:24.296Z,10.96
2023-02-19T01:29:27.438Z,10.98
2023-02-19T01:31:33.401Z,10.96
2023-02-19T01:33:38.118Z,10.96
2023-02-19T01:35:41.319Z,10.99
2023-02-19T01:37:44.423Z,10.96
2023-02-19T01:39:48.576Z,10.95
2023-02-19T01:41:52.031Z,10.96
2023-02-19T01:44:01.903Z,10.95
2023-02-19T01:46:07.794Z,10.95
2023-02-19T01:48:14.320Z,10.95
2023-02-19T01:50:17.763Z,10.96
2023-02-19T01:52:25.730Z,10.98
2023-02-19T01:54:32.536Z,10.98
2023-02-19T01:56:38.364Z,10.97
2023-02-19T01:58:41.752Z,10.97
2023-02-19T02:00:44.838Z,10.96
2023-02-19T02:02:51.542Z,10.95
2023-02-19T02:04:56.692Z,10.94
2023-02-19T02:07:02.135Z,10.93
2023-02-19T02:09:23.341Z,10.95
2023-02-19T02:11:26.747Z,10.93
2023-02-19T02:13:31.067Z,10.95
2023-02-19T02:15:40.791Z,10.91
2023-02-19T02:17:52.506Z,10.89
2023-02-19T02:20:08.189Z,10.92
2023-02-19T02:22:17.481Z,10.93
2023-02-19T02:24:45.024Z,10.92
2023-02-19T02:26:59.625Z,10.93
2023-02-19T02:29:41.856Z,10.94
2023-02-19T02:31:49.759Z,10.94
2023-02-19T02:33:57.857Z,10.93
2023-02-19T02:36:06.960Z,10.91
2023-02-19T02:38:12.937Z,10.96
2023-02-19T02:40:16.392Z,10.93
2023-02-19T02:42:28.921Z,10.93
2023-02-19T02:44:41.252Z,10.91
2023-02-19T02:46:46.805Z,10.87
2023-02-19T02:48:55.420Z,10.88
2023-02-19T02:51:01.903Z,10.86
2023-02-19T02:53:30.925Z,10.86
2023-02-19T02:55:42.701Z,10.87
2023-02-19T02:57:47.249Z,10.89
2023-02-19T02:59:50.925Z,10.87
2023-02-19T03:02:12.717Z,10.84
2023-02-19T03:04:20.835Z,10.84
2023-02-19T03:06:24.665Z,10.86
2023-02-19T03:08:31.535Z,10.86
2023-02-19T03:10:38.013Z,10.86
2023-02-19T03:12:59.350Z,10.86
2023-02-19T03:15:25.129Z,10.86
2023-02-19T03:17:52.326Z,10.85
2023-02-19T03:20:02.749Z,10.87
2023-02-19T03:22:15.747Z,10.86
2023-02-19T03:24:38.432Z,10.86
2023-02-19T03:26:43.084Z,10.87
2023-02-19T03:29:06.604Z,10.85
2023-02-19T03:31:13.299Z,10.85
2023-02-19T03:33:20.268Z,10.87
2023-02-19T03:35:26.810Z,10.80
2023-02-19T03:37:34.238Z,10.80
2023-02-19T03:39:44.451Z,10.78
2023-02-19T03:41:57.469Z,10.72
2023-02-19T03:44:08.720Z,10.71
2023-02-19T03:46:15.616Z,10.69
2023-02-19T03:48:26.464Z,10.67
2023-02-19T03:50:31.936Z,10.59
2023-02-19T03:52:44.384Z,10.58
2023-02-19T03:54:53.839Z,10.57
2023-02-19T03:57:02.877Z,10.54
2023-02-19T03:59:10.903Z,10.52
2023-02-19T04:01:17.759Z,10.49
2023-02-19T04:03:25.333Z,10.50
2023-02-19T04:05:31.211Z,10.50
2023-02-19T04:07:36.927Z,10.51
2023-02-19T04:09:43.084Z,10.48
2023-02-19T04:11:50.173Z,10.50
2023-02-19T04:13:57.813Z,10.49
2023-02-19T04:16:04.009Z,10.48
2023-02-19T04:18:09.034Z,10.46
2023-02-19T04:20:15.562Z,10.44
2023-02-19T04:22:18.904Z,10.46
2023-02-19T04:24:25.820Z,10.46
2023-02-19T04:26:29.754Z,10.44
2023-02-19T04:28:33.013Z,10.45
2023-02-19T04:30:36.189Z,10.47
2023-02-19T04:32:39.422Z,10.43
2023-02-19T04:34:42.529Z,10.44
2023-02-19T04:36:47.127Z,10.42
2023-02-19T04:38:50.177Z,10.43
2023-02-19T04:40:53.304Z,10.43
2023-02-19T04:42:56.530Z,10.41
2023-02-19T04:44:59.581Z,10.43
2023-02-19T04:47:02.629Z,10.35
2023-02-19T04:49:05.744Z,10.32
2023-02-19T04:51:09.419Z,10.29
2023-02-19T04:53:14.138Z,10.27
2023-02-19T04:55:17.336Z,10.30
2023-02-19T04:57:20.423Z,10.26
2023-02-19T04:59:23.650Z,10.20
2023-02-19T05:01:26.960Z,10.16
2023-02-19T05:03:30.506Z,10.12
2023-02-19T05:05:33.637Z,10.09
2023-02-19T05:07:36.776Z,10.10
2023-02-19T05:09:41.200Z,10.07
2023-02-19T05:11:44.316Z,10.07
2023-02-19T05:13:47.414Z,10.02
2023-02-19T05:15:57.475Z,10.05
2023-02-19T05:18:00.608Z,10.02
2023-02-19T05:20:03.992Z,9.98
2023-02-19T05:22:07.149Z,9.96
2023-02-19T05:24:10.342Z,10.02
2023-02-19T05:26:17.108Z,9.98
2023-02-19T05:28:20.691Z,9.93
2023-02-19T05:30:23.885Z,9.89
2023-02-19T05:32:27.112Z,9.91
2023-02-19T05:34:30.273Z,9.84
2023-02-19T05:36:33.819Z,9.81
2023-02-19T05:38:37.171Z,9.85
2023-02-19T05:40:40.481Z,9.85
2023-02-19T05:42:44.924Z,9.82
2023-02-19T05:44:50.974Z,9.84
2023-02-19T05:46:53.989Z,9.85
2023-02-19T05:48:58.171Z,9.89
2023-02-19T05:51:05.140Z,9.87
2023-02-19T05:53:08.308Z,9.88
2023-02-19T05:55:11.410Z,9.87
2023-02-19T05:57:14.546Z,9.85
2023-02-19T05:59:20.786Z,9.86
2023-02-19T06:01:25.582Z,9.84
2023-02-19T06:03:28.601Z,9.84
2023-02-19T06:05:31.722Z,9.85
2023-02-19T06:07:35.217Z,9.85
2023-02-19T06:09:38.553Z,9.84
2023-02-19T06:11:43.448Z,9.86
2023-02-19T06:13:47.444Z,9.84
2023-02-19T06:15:51.981Z,9.84
2023-02-19T06:17:55.048Z,9.87
2023-02-19T06:19:58.248Z,9.88
2023-02-19T06:22:01.358Z,9.86
2023-02-19T06:24:08.591Z,9.88
2023-02-19T06:26:13.528Z,9.87
2023-02-19T06:28:16.664Z,9.85
2023-02-19T06:30:20.002Z,9.94
2023-02-19T06:32:24.703Z,9.97
2023-02-19T06:34:28.360Z,9.97
2023-02-19T06:36:32.084Z,9.89
2023-02-19T06:38:35.311Z,9.89
2023-02-19T06:40:38.476Z,9.90
2023-02-19T06:42:41.630Z,9.85
2023-02-19T06:44:44.711Z,9.87
2023-02-19T06:46:47.846Z,9.90
2023-02-19T06:48:52.386Z,9.90
2023-02-19T06:50:55.782Z,9.90
2023-02-19T06:52:59.051Z,9.91
2023-02-19T06:55:02.240Z,9.94
2023-02-19T06:57:06.082Z,9.94
2023-02-19T06:59:11.644Z,9.88
2023-02-19T07:01:14.782Z,9.85
2023-02-19T07:03:17.925Z,9.87
2023-02-19T07:05:22.422Z,9.91
2023-02-19T07:07:25.494Z,9.92
2023-02-19T07:09:28.636Z,9.93
2023-02-19T07:11:34.261Z,9.98
2023-02-19T07:13:37.899Z,10.02
2023-02-19T07:15:41.130Z,10.02
2023-02-19T07:17:44.330Z,10.02
2023-02-19T07:19:47.436Z,10.05
2023-02-19T07:21:52.214Z,10.05
2023-02-19T07:23:55.698Z,10.06
2023-02-19T07:25:59.125Z,10.12
2023-02-19T07:28:02.213Z,10.12
2023-02-19T07:30:08.395Z,10.11
2023-02-19T07:32:11.561Z,10.10
2023-02-19T07:34:14.835Z,10.14
2023-02-19T07:36:20.154Z,10.13
2023-02-19T07:38:28.338Z,10.12
2023-02-19T07:40:31.455Z,10.05
2023-02-19T07:42:34.679Z,10.09
2023-02-19T07:44:37.881Z,10.15
2023-02-19T07:46:41.034Z,10.16
2023-02-19T07:48:44.603Z,10.18
2023-02-19T07:50:52.869Z,10.23
2023-02-19T07:52:56.427Z,10.23
2023-02-19T07:55:03.686Z,10.24
2023-02-19T07:57:06.887Z,10.22
2023-02-19T07:59:10.778Z,10.27
2023-02-19T08:01:16.581Z,10.27
2023-02-19T08:03:18.783Z,10.31
2023-02-19T08:05:21.782Z,10.32
2023-02-19T08:07:25.147Z,10.36
2023-02-19T08:09:28.259Z,10.40
2023-02-19T08:11:50.138Z,10.46
2023-02-19T08:13:54.312Z,10.46
2023-02-19T08:16:18.360Z,10.41
2023-02-19T08:18:27.048Z,10.45
2023-02-19T08:20:30.141Z,10.41
2023-02-19T08:22:33.253Z,10.46
2023-02-19T08:24:39.116Z,10.49
2023-02-19T08:26:43.596Z,10.56
2023-02-19T08:28:46.763Z,10.59
2023-02-19T08:30:50.583Z,10.58
2023-02-19T08:32:53.829Z,10.64
2023-02-19T08:34:57.024Z,10.70
2023-02-19T08:37:02.086Z,10.68
2023-02-19T08:39:05.197Z,10.75
2023-02-19T08:41:10.171Z,10.78
2023-02-19T08:43:17.330Z,10.77
2023-02-19T08:45:20.836Z,10.75
2023-02-19T08:47:24.015Z,10.76
2023-02-19T08:49:27.666Z,10.78
2023-02-19T08:51:30.829Z,10.80
2023-02-19T08:53:34.462Z,10.77
2023-02-19T08:55:39.654Z,10.78
2023-02-19T08:57:42.767Z,10.80
2023-02-19T08:59:47.182Z,10.84
2023-02-19T09:01:50.865Z,10.85
2023-02-19T09:03:54.359Z,10.87
2023-02-19T09:05:57.460Z,10.92
2023-02-19T09:08:00.929Z,10.93
2023-02-19T09:10:04.626Z,10.97
2023-02-19T09:12:09.010Z,11.00
2023-02-19T09:14:12.087Z,11.01
2023-02-19T09:16:16.610Z,11.03
2023-02-19T09:18:19.896Z,11.03
2023-02-19T09:20:23.090Z,11.07
2023-02-19T09:22:26.548Z,11.09
2023-02-19T09:24:29.654Z,11.11
2023-02-19T09:26:32.756Z,11.10
2023-02-19T09:28:37.778Z,11.16
2023-02-19T09:30:40.924Z,11.12
2023-02-19T09:32:45.580Z,11.07
2023-02-19T09:34:48.647Z,11.10
2023-02-19T09:36:52.114Z,11.10
2023-02-19T09:38:55.271Z,11.12
2023-02-19T09:40:59.006Z,11.14
2023-02-19T09:43:03.297Z,11.20
2023-02-19T09:45:07.411Z,11.20
2023-02-19T09:47:17.076Z,11.21
2023-02-19T09:49:25.940Z,11.21
2023-02-19T09:51:30.366Z,11.25
2023-02-19T09:53:40.270Z,11.27
2023-02-19T09:55:44.445Z,11.35
2023-02-19T09:57:48.363Z,11.37
2023-02-19T09:59:54.707Z,11.34
2023-02-19T10:02:03.071Z,11.33
2023-02-19T10:04:06.277Z,11.38
2023-02-19T10:06:16.748Z,11.41
2023-02-19T10:08:22.165Z,11.42
2023-02-19T10:10:30.142Z,11.38
2023-02-19T10:12:35.128Z,11.39
2023-02-19T10:14:41.517Z,11.40
2023-02-19T10:16:46.646Z,11.40
2023-02-19T10:18:49.862Z,11.42
2023-02-19T10:20:54.124Z,11.44
2023-02-19T10:23:03.524Z,11.49
2023-02-19T10:25:07.196Z,11.49
2023-02-19T10:27:13.432Z,11.50
2023-02-19T10:29:16.545Z,11.54
2023-02-19T10:31:22.186Z,11.54
2023-02-19T10:33:25.811Z,11.52
2023-02-19T10:35:29.678Z,11.48
2023-02-19T10:37:33.416Z,11.46
2023-02-19T10:39:43.991Z,11.46
2023-02-19T10:41:47.331Z,11.47
2023-02-19T10:43:54.939Z,11.47
2023-02-19T10:45:59.939Z,11.46
2023-02-19T10:48:04.317Z,11.48
2023-02-19T10:50:08.809Z,11.49
2023-02-19T10:52:17.914Z,11.52
2023-02-19T10:54:25.376Z,11.59
2023-02-19T10:56:31.512Z,11.68
2023-02-19T10:58:37.368Z,11.69
2023-02-19T11:00:40.637Z,11.73
2023-02-19T11:02:44.800Z,11.74
2023-02-19T11:05:05.465Z,11.78
2023-02-19T11:07:10.169Z,11.82
2023-02-19T11:09:26.912Z,11.91
2023-02-19T11:11:34.980Z,11.97
2023-02-19T11:13:39.779Z,12.01
2023-02-19T11:15:43.738Z,12.07
2023-02-19T11:17:47.060Z,12.12
2023-02-19T11:19:53.255Z,12.09
2023-02-19T11:21:57.014Z,12.12
2023-02-19T11:24:02.578Z,12.14
2023-02-19T11:26:07.841Z,12.18
2023-02-19T11:28:23.512Z,12.19
2023-02-19T11:30:36.546Z,12.13
2023-02-19T11:32:40.045Z,12.06
2023-02-19T11:34:43.161Z,12.05
2023-02-19T11:36:46.424Z,12.02
2023-02-19T11:38:49.713Z,12.05
2023-02-19T11:40:58.522Z,12.05
2023-02-19T11:43:07.775Z,11.99
2023-02-19T11:45:18.874Z,11.99
2023-02-19T11:47:44.896Z,11.98
2023-02-19T11:49:55.063Z,12.02
2023-02-19T11:52:08.281Z,12.05
2023-02-19T11:54:21.905Z,12.10
2023-02-19T11:56:33.726Z,12.11
2023-02-19T11:58:59.502Z,12.12
2023-02-19T12:01:11.722Z,12.09
2023-02-19T12:03:33.205Z,12.05
2023-02-19T12:05:45.199Z,12.00
2023-02-19T12:08:21.507Z,12.03
2023-02-19T12:10:29.122Z,12.03
2023-02-19T12:12:43.102Z,12.01
2023-02-19T12:15:11.931Z,12.04
2023-02-19T12:17:45.525Z,12.05
2023-02-19T12:20:04.711Z,12.09
2023-02-19T12:22:22.600Z,12.07
2023-02-19T12:24:45.919Z,12.08
2023-02-19T12:26:56.043Z,12.10
2023-02-19T12:29:18.069Z,12.14
2023-02-19T12:31:35.349Z,12.21
2023-02-19T12:34:03.846Z,12.23
2023-02-19T12:36:14.420Z,12.23
2023-02-19T12:38:23.688Z,12.22
2023-02-19T12:40:35.837Z,12.17
2023-02-19T12:42:47.092Z,12.21
2023-02-19T12:44:54.089Z,12.23
2023-02-19T12:46:59.587Z,12.28
2023-02-19T12:49:08.319Z,12.30
2023-02-19T12:51:15.802Z,12.29
2023-02-19T12:53:30.016Z,12.21
2023-02-19T12:55:36.411Z,12.18
2023-02-19T12:57:40.268Z,12.17
2023-02-19T12:59:46.424Z,12.14
2023-02-19T13:01:53.215Z,12.07
2023-02-19T13:04:14.064Z,11.99
2023-02-19T13:06:25.811Z,11.89
2023-02-19T13:08:34.209Z,11.84
2023-02-19T13:10:41.404Z,11.77
2023-02-19T13:12:45.696Z,11.76
2023-02-19T13:14:50.763Z,11.76
2023-02-19T13:16:59.560Z,11.75
2023-02-19T13:19:04.579Z,11.73
2023-02-19T13:21:09.969Z,11.74
2023-02-19T13:23:35.073Z,11.77
2023-02-19T13:25:57.780Z,11.84
2023-02-19T13:28:13.160Z,11.86
2023-02-19T13:30:29.982Z,11.86
2023-02-19T13:32:48.713Z,11.92
2023-02-19T13:35:11.715Z,11.99
2023-02-19T13:37:16.902Z,12.04
2023-02-19T13:39:21.650Z,12.08
2023-02-19T13:41:29.861Z,12.08
2023-02-19T13:43:35.641Z,12.14
2023-02-19T13:45:42.022Z,12.16
2023-02-19T13:47:51.447Z,12.22
2023-02-19T13:50:06.692Z,12.27
2023-02-19T13:52:39.819Z,12.35
2023-02-19T13:54:42.906Z,12.42
2023-02-19T13:56:45.998Z,12.48
2023-02-19T13:58:58.189Z,12.47
2023-02-19T14:01:02.461Z,12.48
2023-02-19T14:03:29.644Z,12.52
2023-02-19T14:06:00.611Z,12.54
2023-02-19T14:08:06.082Z,12.54
2023-02-19T14:10:13.477Z,12.51
2023-02-19T14:12:20.810Z,12.42
2023-02-19T14:14:28.584Z,12.41
2023-02-19T14:16:51.952Z,12.37
2023-02-19T14:18:56.389Z,12.41
2023-02-19T14:21:14.321Z,12.38
2023-02-19T14:23:24.369Z,12.34
2023-02-19T14:25:35.277Z,12.33
2023-02-19T14:27:39.037Z,12.35
2023-02-19T14:29:42.172Z,12.39
2023-02-19T14:31:46.705Z,12.39
2023-02-19T14:33:51.976Z,12.38
2023-02-19T14:35:58.550Z,12.37
2023-02-19T14:38:01.782Z,12.37
2023-02-19T14:40:07.047Z,12.37
2023-02-19T14:42:17.396Z,12.37
2023-02-19T14:44:24.977Z,12.34
2023-02-19T14:46:31.816Z,12.37
2023-02-19T14:48:39.458Z,12.41
2023-02-19T14:50:43.209Z,12.46
2023-02-19T14:52:49.466Z,12.42
2023-02-19T14:54:55.052Z,12.32
2023-02-19T14:57:00.636Z,12.23
2023-02-19T14:59:23.072Z,12.07
2023-02-19T15:01:27.263Z,12.08
2023-02-19T15:03:34.085Z,12.10
2023-02-19T15:05:38.270Z,12.07
2023-02-19T15:07:42.750Z,12.05
2023-02-19T15:09:47.839Z,12.04
2023-02-19T15:11:51.168Z,12.03
2023-02-19T15:13:58.567Z,11.98
2023-02-19T15:16:01.772Z,11.92
2023-02-19T15:18:06.102Z,11.88
2023-02-19T15:20:12.760Z,11.87
2023-02-19T15:22:21.124Z,11.83
2023-02-19T15:24:24.310Z,11.79
2023-02-19T15:26:33.326Z,11.80
2023-02-19T15:28:36.415Z,11.79
2023-02-19T15:30:40.969Z,11.81
2023-02-19T15:32:53.095Z,11.80
2023-02-19T15:34:57.325Z,11.81
2023-02-19T15:37:02.823Z,11.81
2023-02-19T15:39:06.064Z,11.76
2023-02-19T15:41:18.039Z,11.75
2023-02-19T15:43:24.722Z,11.74
2023-02-19T15:45:30.003Z,11.75
2023-02-19T15:47:36.908Z,11.74
2023-02-19T15:49:46.123Z,11.74
2023-02-19T15:51:53.381Z,11.73
2023-02-19T15:53:59.774Z,11.73
2023-02-19T15:56:05.800Z,11.70
2023-02-19T15:58:13.317Z,11.68
2023-02-19T16:00:22.681Z,11.68
2023-02-19T16:02:27.683Z,11.67
2023-02-19T16:04:32.388Z,11.65
2023-02-19T16:06:55.723Z,11.60
2023-02-19T16:09:03.094Z,11.60
2023-02-19T16:11:08.875Z,11.56
2023-02-19T16:13:13.146Z,11.53
2023-02-19T16:15:20.176Z,11.53
2023-02-19T16:17:28.181Z,11.53
2023-02-19T16:19:44.034Z,11.51
2023-02-19T16:21:47.235Z,11.50
2023-02-19T16:23:54.609Z,11.48
2023-02-19T16:26:01.875Z,11.46
2023-02-19T16:28:12.519Z,11.45
2023-02-19T16:30:28.068Z,11.45
2023-02-19T16:32:31.313Z,11.43
2023-02-19T16:34:41.908Z,11.43
2023-02-19T16:36:46.257Z,11.43
2023-02-19T16:39:06.143Z,11.42
2023-02-19T16:41:13.913Z,11.43
2023-02-19T16:43:30.427Z,11.40
2023-02-19T16:45:33.608Z,11.41
2023-02-19T16:47:41.652Z,11.40
2023-02-19T16:49:46.257Z,11.40
2023-02-19T16:51:49.534Z,11.39
2023-02-19T16:53:52.692Z,11.38
2023-02-19T16:55:56.007Z,11.40
2023-02-19T16:57:59.284Z,11.38
2023-02-19T17:00:02.446Z,11.36
2023-02-19T17:02:16.899Z,11.34
2023-02-19T17:04:20.040Z,11.37
2023-02-19T17:06:24.603Z,11.36
2023-02-19T17:08:33.890Z,11.37
2023-02-19T17:10:37.021Z,11.35
2023-02-19T17:12:41.574Z,11.33
2023-02-19T17:14:45.837Z,11.30
2023-02-19T17:16:49.186Z,11.30
2023-02-19T17:18:52.581Z,11.29
2023-02-19T17:20:58.567Z,11.30
2023-02-19T17:23:03.074Z,11.31
2023-02-19T17:25:07.060Z,11.33
2023-02-19T17:27:11.959Z,11.35
2023-02-19T17:29:18.426Z,11.34
2023-02-19T17:31:21.852Z,11.34
2023-02-19T17:33:25.014Z,11.36
2023-02-19T17:35:28.146Z,11.30
2023-02-19T17:37:31.461Z,11.27
2023-02-19T17:39:35.890Z,11.25
2023-02-19T17:41:39.014Z,11.18
2023-02-19T17:43:42.323Z,11.18
2023-02-19T17:45:45.484Z,11.20
2023-02-19T17:47:49.027Z,11.21
2023-02-19T17:49:52.268Z,11.23
2023-02-19T17:51:55.443Z,11.23
2023-02-19T17:53:58.584Z,11.21
2023-02-19T17:56:06.497Z,11.24
2023-02-19T17:58:09.617Z,11.23
2023-02-19T18:00:17.118Z,11.23
2023-02-19T18:02:20.149Z,11.24
2023-02-19T18:04:23.322Z,11.25
2023-02-19T18:06:26.664Z,11.25
2023-02-19T18:08:29.864Z,11.25
2023-02-19T18:10:32.925Z,11.26
2023-02-19T18:12:37.354Z,11.28
2023-02-19T18:14:40.443Z,11.27
2023-02-19T18:16:49.693Z,11.27
2023-02-19T18:18:53.360Z,11.25
2023-02-19T18:20:56.524Z,11.24
2023-02-19T18:23:02.350Z,11.27
2023-02-19T18:25:05.639Z,11.21
2023-02-19T18:27:08.693Z,11.18
2023-02-19T18:29:13.196Z,11.19
2023-02-19T18:31:16.690Z,11.17
2023-02-19T18:33:19.987Z,11.16
2023-02-19T18:35:23.284Z,11.13
2023-02-19T18:37:27.616Z,11.13
2023-02-19T18:39:30.728Z,11.11
2023-02-19T18:41:33.839Z,11.10
2023-02-19T18:43:36.924Z,11.06
2023-02-19T18:45:43.368Z,11.07
2023-02-19T18:47:47.654Z,11.01
2023-02-19T18:49:51.783Z,10.97
2023-02-19T18:51:55.268Z,10.98
2023-02-19T18:54:01.755Z,10.98
2023-02-19T18:56:05.425Z,10.97
2023-02-19T18:58:11.113Z,10.98
2023-02-19T19:00:18.389Z,10.96
2023-02-19T19:02:23.272Z,10.96
2023-02-19T19:04:26.522Z,10.95
2023-02-19T19:06:29.888Z,10.95
2023-02-19T19:08:32.925Z,10.97
2023-02-19T19:10:36.070Z,11.00
2023-02-19T19:12:39.113Z,10.98
2023-02-19T19:14:43.293Z,10.97
2023-02-19T19:16:46.397Z,10.98
2023-02-19T19:18:51.471Z,10.97
2023-02-19T19:20:56.680Z,10.98
2023-02-19T19:22:59.814Z,10.99
2023-02-19T19:25:02.914Z,10.99
2023-02-19T19:27:06.016Z,10.99
2023-02-19T19:29:09.435Z,10.99
2023-02-19T19:31:13.021Z,11.00
2023-02-19T19:33:17.732Z,11.01
2023-02-19T19:35:22.793Z,11.03
2023-02-19T19:37:28.416Z,11.03
2023-02-19T19:39:31.664Z,11.01
2023-02-19T19:41:34.833Z,11.02
2023-02-19T19:43:38.069Z,11.02
2023-02-19T19:45:41.403Z,11.04
2023-02-19T19:47:44.691Z,11.03
2023-02-19T19:49:48.232Z,11.09
2023-02-19T19:51:52.752Z,11.07
2023-02-19T19:53:55.883Z,11.02
2023-02-19T19:55:58.992Z,11.02
2023-02-19T19:58:02.069Z,11.00
2023-02-19T20:00:06.045Z,11.01
2023-02-19T20:02:15.498Z,11.01
2023-02-19T20:04:18.746Z,11.01
2023-02-19T20:06:26.777Z,11.01
2023-02-19T20:08:31.267Z,11.00
2023-02-19T20:10:34.451Z,10.99
2023-02-19T20:12:37.580Z,10.97
2023-02-19T20:14:40.694Z,10.96
2023-02-19T20:16:44.826Z,10.96
2023-02-19T20:18:48.031Z,10.95
2023-02-19T20:20:51.117Z,10.93
2023-02-19T20:22:54.750Z,10.92
2023-02-19T20:24:59.333Z,10.98
2023-02-19T20:27:03.001Z,10.90
2023-02-19T20:29:07.137Z,10.89
2023-02-19T20:31:10.684Z,10.89
2023-02-19T20:33:13.966Z,10.88
2023-02-19T20:35:17.677Z,10.82
2023-02-19T20:37:23.723Z,10.81
2023-02-19T20:39:29.198Z,10.83
2023-02-19T20:41:33.645Z,10.80
2023-02-19T20:43:36.668Z,10.74
2023-02-19T20:45:41.060Z,10.71
2023-02-19T20:47:44.180Z,10.71
2023-02-19T20:49:47.288Z,10.69
2023-02-19T20:51:51.960Z,10.63
2023-02-19T20:53:55.065Z,10.59
2023-02-19T20:55:58.277Z,10.57
2023-02-19T20:58:02.745Z,10.55
2023-02-19T21:00:07.313Z,10.58
2023-02-19T21:02:15.704Z,10.56
2023-02-19T21:04:19.325Z,10.57
2023-02-19T21:06:22.598Z,10.57
2023-02-19T21:08:25.692Z,10.59
2023-02-19T21:10:28.722Z,10.60
2023-02-19T21:12:32.715Z,10.57
2023-02-19T21:14:37.097Z,10.54
2023-02-19T21:16:40.236Z,10.53
2023-02-19T21:18:43.675Z,10.56
2023-02-19T21:20:46.631Z,10.57
2023-02-19T21:22:49.673Z,10.57
2023-02-19T21:24:53.560Z,10.58
2023-02-19T21:26:56.410Z,10.56
2023-02-19T21:28:59.341Z,10.56
2023-02-19T21:31:03.653Z,10.56
2023-02-19T21:33:06.659Z,10.56
2023-02-19T21:35:10.394Z,10.54
2023-02-19T21:37:13.474Z,10.55
2023-02-19T21:39:19.136Z,10.56
2023-02-19T21:41:22.404Z,10.55
2023-02-19T21:43:25.478Z,10.55
2023-02-19T21:45:28.658Z,10.54
2023-02-19T21:47:33.180Z,10.55
2023-02-19T21:49:36.254Z,10.53
2023-02-19T21:51:40.636Z,10.51
2023-02-19T21:53:44.020Z,10.51
2023-02-19T21:55:57.986Z,10.53
2023-02-19T21:58:01.829Z,10.53
2023-02-19T22:00:06.494Z,10.56
2023-02-19T22:02:10.416Z,10.55
2023-02-19T22:04:17.721Z,10.56
2023-02-19T22:06:22.537Z,10.55
2023-02-19T22:08:25.603Z,10.55
2023-02-19T22:10:28.652Z,10.56
2023-02-19T22:12:31.760Z,10.55
2023-02-19T22:14:34.869Z,10.56
2023-02-19T22:16:38.092Z,10.56
2023-02-19T22:18:47.303Z,10.56
2023-02-19T22:20:51.683Z,10.56
2023-02-19T22:22:54.903Z,10.57
2023-02-19T22:24:58.209Z,10.56
2023-02-19T22:27:01.290Z,10.56
2023-02-19T22:29:07.260Z,10.58
2023-02-19T22:31:10.573Z,10.58
2023-02-19T22:33:13.646Z,10.60
2023-02-19T22:35:16.920Z,10.60
2023-02-19T22:37:21.321Z,10.61
2023-02-19T22:39:25.937Z,10.63
2023-02-19T22:41:29.245Z,10.62
2023-02-19T22:43:32.336Z,10.62
2023-02-19T22:45:35.459Z,10.62
2023-02-19T22:47:39.977Z,10.60
2023-02-19T22:49:43.942Z,10.60
2023-02-19T22:51:51.791Z,10.62
2023-02-19T22:53:57.816Z,10.61
2023-02-19T22:56:00.903Z,10.62
2023-02-19T22:58:03.959Z,10.61
2023-02-19T23:00:08.700Z,10.59
2023-02-19T23:02:11.802Z,10.61
2023-02-19T23:04:14.994Z,10.61
2023-02-19T23:06:22.218Z,10.61
2023-02-19T23:08:25.322Z,10.60
2023-02-19T23:10:29.745Z,10.58
2023-02-19T23:12:32.868Z,10.60
2023-02-19T23:14:36.410Z,10.60
2023-02-19T23:16:39.466Z,10.61
2023-02-19T23:18:42.531Z,10.62
2023-02-19T23:20:45.741Z,10.63
2023-02-19T23:22:48.805Z,10.62
2023-02-19T23:24:51.948Z,10.61
2023-02-19T23:26:56.468Z,10.61
2023-02-19T23:28:59.637Z,10.61
2023-02-19T23:31:02.825Z,10.63
2023-02-19T23:33:05.863Z,10.60
2023-02-19T23:35:09.242Z,10.60
2023-02-19T23:37:12.272Z,10.58
2023-02-19T23:39:18.176Z,10.58
2023-02-19T23:41:21.295Z,10.55
2023-02-19T23:43:25.828Z,10.56
2023-02-19T23:45:29.627Z,10.57
2023-02-19T23:47:32.671Z,10.54
2023-02-19T23:49:35.775Z,10.53
2023-02-19T23:51:38.849Z,10.52
2023-02-19T23:53:42.068Z,10.52
2023-02-19T23:55:45.177Z,10.52
2023-02-19T23:57:48.224Z,10.52
2023-02-19T23:59:52.953Z,10.50
